sensor_id;sensor_type;location;lat;lon;timestamp;P1;durP1;ratioP1;P2;durP2;ratioP2
21806;SDS011;11065;50.786;7.840;2023-11-21T00:00:03;5.73;;;3.73;;
21806;SDS011;11065;50.786;7.840;2023-11-21T00:02:39;6.83;;;4.37;;
21806;SDS011;11065;50.786;7.840;2023-11-21T00:05:08;7.97;;;4.53;;
21806;SDS011;11065;50.786;7.840;2023-11-21T00:07:36;6.57;;;4.10;;
21806;SDS011;11065;50.786;7.840;2023-11-21T00:10:05;5.80;;;3.90;;
21806;SDS011;11065;50.786;7.840;2023-11-21T00:12:34;6.70;;;4.33;;
21806;SDS011;11065;50.786;7.840;2023-11-21T00:15:03;5.03;;;3.83;;
21806;SDS011;11065;50.786;7.840;2023-11-21T00:17:32;8.43;;;3.93;;
21806;SDS011;11065;50.786;7.840;2023-11-21T00:20:01;6.23;;;4.00;;
21806;SDS011;11065;50.786;7.840;2023-11-21T00:22:32;6.07;;;3.90;;
21806;SDS011;11065;50.786;7.840;2023-11-21T00:25:01;6.90;;;4.20;;
21806;SDS011;11065;50.786;7.840;2023-11-21T00:27:30;6.40;;;3.60;;
21806;SDS011;11065;50.786;7.840;2023-11-21T00:29:58;7.07;;;4.07;;
21806;SDS011;11065;50.786;7.840;2023-11-21T00:32:27;5.83;;;3.90;;
21806;SDS011;11065;50.786;7.840;2023-11-21T00:34:55;5.90;;;3.93;;
21806;SDS011;11065;50.786;7.840;2023-11-21T00:37:24;6.00;;;4.00;;
21806;SDS011;11065;50.786;7.840;2023-11-21T00:39:52;5.63;;;4.17;;
21806;SDS011;11065;50.786;7.840;2023-11-21T00:42:20;8.30;;;4.37;;
21806;SDS011;11065;50.786;7.840;2023-11-21T00:44:49;8.30;;;4.50;;
21806;SDS011;11065;50.786;7.840;2023-11-21T00:47:17;5.70;;;4.07;;
21806;SDS011;11065;50.786;7.840;2023-11-21T00:49:45;8.43;;;4.77;;
21806;SDS011;11065;50.786;7.840;2023-11-21T00:52:15;5.93;;;4.00;;
21806;SDS011;11065;50.786;7.840;2023-11-21T00:54:44;7.33;;;4.30;;
21806;SDS011;11065;50.786;7.840;2023-11-21T00:57:12;5.83;;;4.30;;
21806;SDS011;11065;50.786;7.840;2023-11-21T00:59:40;6.40;;;4.57;;
21806;SDS011;11065;50.786;7.840;2023-11-21T01:02:08;5.43;;;3.93;;
21806;SDS011;11065;50.786;7.840;2023-11-21T01:04:37;7.50;;;4.20;;
21806;SDS011;11065;50.786;7.840;2023-11-21T01:07:05;6.47;;;4.00;;
21806;SDS011;11065;50.786;7.840;2023-11-21T01:09:33;6.13;;;4.40;;
21806;SDS011;11065;50.786;7.840;2023-11-21T01:12:02;6.20;;;4.13;;
21806;SDS011;11065;50.786;7.840;2023-11-21T01:14:31;6.23;;;4.07;;
21806;SDS011;11065;50.786;7.840;2023-11-21T01:16:59;5.37;;;3.83;;
21806;SDS011;11065;50.786;7.840;2023-11-21T01:19:27;5.13;;;3.77;;
21806;SDS011;11065;50.786;7.840;2023-11-21T01:21:56;5.50;;;3.97;;
21806;SDS011;11065;50.786;7.840;2023-11-21T01:24:24;5.30;;;3.67;;
21806;SDS011;11065;50.786;7.840;2023-11-21T01:26:52;4.20;;;2.93;;
21806;SDS011;11065;50.786;7.840;2023-11-21T01:29:21;5.93;;;3.77;;
21806;SDS011;11065;50.786;7.840;2023-11-21T01:31:49;5.27;;;3.50;;
21806;SDS011;11065;50.786;7.840;2023-11-21T01:34:18;5.20;;;3.90;;
21806;SDS011;11065;50.786;7.840;2023-11-21T01:36:47;6.10;;;3.70;;
21806;SDS011;11065;50.786;7.840;2023-11-21T01:39:15;6.20;;;3.67;;
21806;SDS011;11065;50.786;7.840;2023-11-21T01:41:49;7.20;;;3.73;;
21806;SDS011;11065;50.786;7.840;2023-11-21T01:44:18;5.33;;;3.50;;
21806;SDS011;11065;50.786;7.840;2023-11-21T01:46:48;5.47;;;3.53;;
21806;SDS011;11065;50.786;7.840;2023-11-21T01:49:16;5.17;;;3.57;;
21806;SDS011;11065;50.786;7.840;2023-11-21T01:51:47;5.10;;;3.63;;
21806;SDS011;11065;50.786;7.840;2023-11-21T01:54:17;6.67;;;3.50;;
21806;SDS011;11065;50.786;7.840;2023-11-21T01:56:46;4.67;;;3.33;;
21806;SDS011;11065;50.786;7.840;2023-11-21T01:59:17;6.40;;;3.57;;
21806;SDS011;11065;50.786;7.840;2023-11-21T02:01:48;6.17;;;3.40;;
21806;SDS011;11065;50.786;7.840;2023-11-21T02:04:18;5.20;;;3.83;;
21806;SDS011;11065;50.786;7.840;2023-11-21T02:06:47;5.40;;;3.63;;
21806;SDS011;11065;50.786;7.840;2023-11-21T02:09:22;4.83;;;3.67;;
21806;SDS011;11065;50.786;7.840;2023-11-21T02:11:52;5.10;;;3.50;;
21806;SDS011;11065;50.786;7.840;2023-11-21T02:14:24;5.13;;;3.57;;
21806;SDS011;11065;50.786;7.840;2023-11-21T02:16:54;5.57;;;3.67;;
21806;SDS011;11065;50.786;7.840;2023-11-21T02:19:23;6.10;;;3.57;;
21806;SDS011;11065;50.786;7.840;2023-11-21T02:21:52;5.40;;;3.63;;
21806;SDS011;11065;50.786;7.840;2023-11-21T02:24:22;6.57;;;4.00;;
21806;SDS011;11065;50.786;7.840;2023-11-21T02:26:51;4.97;;;3.70;;
21806;SDS011;11065;50.786;7.840;2023-11-21T02:29:20;5.27;;;3.97;;
21806;SDS011;11065;50.786;7.840;2023-11-21T02:31:54;5.43;;;3.57;;
21806;SDS011;11065;50.786;7.840;2023-11-21T02:34:22;6.93;;;4.37;;
21806;SDS011;11065;50.786;7.840;2023-11-21T02:36:51;5.30;;;3.67;;
21806;SDS011;11065;50.786;7.840;2023-11-21T02:39:21;5.97;;;4.20;;
21806;SDS011;11065;50.786;7.840;2023-11-21T02:41:51;6.87;;;4.33;;
21806;SDS011;11065;50.786;7.840;2023-11-21T02:44:18;6.63;;;4.50;;
21806;SDS011;11065;50.786;7.840;2023-11-21T02:46:46;5.73;;;4.00;;
21806;SDS011;11065;50.786;7.840;2023-11-21T02:49:14;6.40;;;4.27;;
21806;SDS011;11065;50.786;7.840;2023-11-21T02:51:42;5.50;;;4.13;;
21806;SDS011;11065;50.786;7.840;2023-11-21T02:54:10;5.93;;;4.47;;
21806;SDS011;11065;50.786;7.840;2023-11-21T02:56:40;5.60;;;4.17;;
21806;SDS011;11065;50.786;7.840;2023-11-21T02:59:08;5.87;;;4.57;;
21806;SDS011;11065;50.786;7.840;2023-11-21T03:01:36;7.23;;;5.37;;
21806;SDS011;11065;50.786;7.840;2023-11-21T03:04:04;6.43;;;5.00;;
21806;SDS011;11065;50.786;7.840;2023-11-21T03:06:33;7.73;;;4.87;;
21806;SDS011;11065;50.786;7.840;2023-11-21T03:09:01;6.63;;;4.23;;
21806;SDS011;11065;50.786;7.840;2023-11-21T03:11:29;7.07;;;4.33;;
21806;SDS011;11065;50.786;7.840;2023-11-21T03:14:00;6.73;;;4.30;;
21806;SDS011;11065;50.786;7.840;2023-11-21T03:16:28;6.23;;;4.27;;
21806;SDS011;11065;50.786;7.840;2023-11-21T03:18:57;6.50;;;5.03;;
21806;SDS011;11065;50.786;7.840;2023-11-21T03:21:26;6.00;;;4.60;;
21806;SDS011;11065;50.786;7.840;2023-11-21T03:23:55;6.63;;;4.37;;
21806;SDS011;11065;50.786;7.840;2023-11-21T03:26:23;7.10;;;4.73;;
21806;SDS011;11065;50.786;7.840;2023-11-21T03:28:51;8.13;;;4.63;;
21806;SDS011;11065;50.786;7.840;2023-11-21T03:31:21;7.10;;;4.53;;
21806;SDS011;11065;50.786;7.840;2023-11-21T03:33:49;7.57;;;4.40;;
21806;SDS011;11065;50.786;7.840;2023-11-21T03:36:17;6.27;;;4.67;;
21806;SDS011;11065;50.786;7.840;2023-11-21T03:38:45;7.67;;;4.93;;
21806;SDS011;11065;50.786;7.840;2023-11-21T03:41:13;6.43;;;4.60;;
21806;SDS011;11065;50.786;7.840;2023-11-21T03:43:41;8.33;;;5.03;;
21806;SDS011;11065;50.786;7.840;2023-11-21T03:46:13;6.63;;;4.73;;
21806;SDS011;11065;50.786;7.840;2023-11-21T03:48:43;6.20;;;4.43;;
21806;SDS011;11065;50.786;7.840;2023-11-21T03:51:11;8.03;;;4.90;;
21806;SDS011;11065;50.786;7.840;2023-11-21T03:53:38;8.37;;;5.17;;
21806;SDS011;11065;50.786;7.840;2023-11-21T03:56:09;6.37;;;4.73;;
21806;SDS011;11065;50.786;7.840;2023-11-21T03:58:38;8.87;;;5.00;;
21806;SDS011;11065;50.786;7.840;2023-11-21T04:01:06;8.17;;;5.13;;
21806;SDS011;11065;50.786;7.840;2023-11-21T04:03:34;6.63;;;4.63;;
21806;SDS011;11065;50.786;7.840;2023-11-21T04:06:04;6.20;;;4.37;;
21806;SDS011;11065;50.786;7.840;2023-11-21T04:08:32;8.83;;;4.90;;
21806;SDS011;11065;50.786;7.840;2023-11-21T04:11:00;7.40;;;4.67;;
21806;SDS011;11065;50.786;7.840;2023-11-21T04:13:28;6.73;;;4.97;;
21806;SDS011;11065;50.786;7.840;2023-11-21T04:15:56;7.80;;;5.50;;
21806;SDS011;11065;50.786;7.840;2023-11-21T04:18:24;7.67;;;5.57;;
21806;SDS011;11065;50.786;7.840;2023-11-21T04:20:52;8.50;;;4.73;;
21806;SDS011;11065;50.786;7.840;2023-11-21T04:23:22;9.07;;;4.73;;
21806;SDS011;11065;50.786;7.840;2023-11-21T04:25:50;7.00;;;5.07;;
21806;SDS011;11065;50.786;7.840;2023-11-21T04:28:20;7.97;;;4.63;;
21806;SDS011;11065;50.786;7.840;2023-11-21T04:30:48;6.33;;;4.67;;
21806;SDS011;11065;50.786;7.840;2023-11-21T04:33:16;8.37;;;4.70;;
21806;SDS011;11065;50.786;7.840;2023-11-21T04:35:45;7.20;;;5.07;;
21806;SDS011;11065;50.786;7.840;2023-11-21T04:38:13;7.57;;;4.73;;
21806;SDS011;11065;50.786;7.840;2023-11-21T04:40:42;6.23;;;4.90;;
21806;SDS011;11065;50.786;7.840;2023-11-21T04:43:09;7.37;;;4.83;;
21806;SDS011;11065;50.786;7.840;2023-11-21T04:45:37;7.63;;;5.27;;
21806;SDS011;11065;50.786;7.840;2023-11-21T04:48:07;8.60;;;5.47;;
21806;SDS011;11065;50.786;7.840;2023-11-21T04:50:36;8.77;;;5.47;;
21806;SDS011;11065;50.786;7.840;2023-11-21T04:53:05;7.03;;;4.87;;
21806;SDS011;11065;50.786;7.840;2023-11-21T04:55:32;7.60;;;4.90;;
21806;SDS011;11065;50.786;7.840;2023-11-21T04:58:02;7.97;;;5.30;;
21806;SDS011;11065;50.786;7.840;2023-11-21T05:00:30;6.27;;;4.73;;
21806;SDS011;11065;50.786;7.840;2023-11-21T05:02:58;7.33;;;5.27;;
21806;SDS011;11065;50.786;7.840;2023-11-21T05:05:27;8.00;;;5.00;;
21806;SDS011;11065;50.786;7.840;2023-11-21T05:07:56;7.77;;;5.33;;
21806;SDS011;11065;50.786;7.840;2023-11-21T05:10:23;7.10;;;5.20;;
21806;SDS011;11065;50.786;7.840;2023-11-21T05:12:51;7.30;;;5.20;;
21806;SDS011;11065;50.786;7.840;2023-11-21T05:15:21;8.80;;;6.27;;
21806;SDS011;11065;50.786;7.840;2023-11-21T05:17:49;7.90;;;5.10;;
21806;SDS011;11065;50.786;7.840;2023-11-21T05:20:18;7.20;;;5.60;;
21806;SDS011;11065;50.786;7.840;2023-11-21T05:22:47;8.60;;;5.30;;
21806;SDS011;11065;50.786;7.840;2023-11-21T05:25:15;7.87;;;5.37;;
21806;SDS011;11065;50.786;7.840;2023-11-21T05:27:44;10.00;;;5.70;;
21806;SDS011;11065;50.786;7.840;2023-11-21T05:30:13;9.33;;;5.17;;
21806;SDS011;11065;50.786;7.840;2023-11-21T05:32:42;7.43;;;5.27;;
21806;SDS011;11065;50.786;7.840;2023-11-21T05:35:11;7.43;;;5.23;;
21806;SDS011;11065;50.786;7.840;2023-11-21T05:37:42;7.50;;;5.63;;
21806;SDS011;11065;50.786;7.840;2023-11-21T05:40:10;9.70;;;5.80;;
21806;SDS011;11065;50.786;7.840;2023-11-21T05:42:39;8.83;;;5.50;;
21806;SDS011;11065;50.786;7.840;2023-11-21T05:45:08;8.23;;;5.83;;
21806;SDS011;11065;50.786;7.840;2023-11-21T05:47:37;10.53;;;6.13;;
21806;SDS011;11065;50.786;7.840;2023-11-21T05:50:09;9.87;;;5.87;;
21806;SDS011;11065;50.786;7.840;2023-11-21T05:52:38;8.40;;;6.13;;
21806;SDS011;11065;50.786;7.840;2023-11-21T05:55:07;10.23;;;6.70;;
21806;SDS011;11065;50.786;7.840;2023-11-21T05:57:35;7.77;;;5.67;;
21806;SDS011;11065;50.786;7.840;2023-11-21T06:00:04;9.47;;;6.27;;
21806;SDS011;11065;50.786;7.840;2023-11-21T06:02:37;9.73;;;6.10;;
21806;SDS011;11065;50.786;7.840;2023-11-21T06:05:06;9.93;;;5.83;;
21806;SDS011;11065;50.786;7.840;2023-11-21T06:07:36;10.60;;;6.70;;
21806;SDS011;11065;50.786;7.840;2023-11-21T06:10:07;13.23;;;7.67;;
21806;SDS011;11065;50.786;7.840;2023-11-21T06:12:38;11.70;;;7.40;;
21806;SDS011;11065;50.786;7.840;2023-11-21T06:15:09;10.33;;;5.77;;
21806;SDS011;11065;50.786;7.840;2023-11-21T06:17:40;9.10;;;5.80;;
21806;SDS011;11065;50.786;7.840;2023-11-21T06:20:11;7.17;;;5.50;;
21806;SDS011;11065;50.786;7.840;2023-11-21T06:22:42;7.93;;;5.70;;
21806;SDS011;11065;50.786;7.840;2023-11-21T06:25:11;7.67;;;5.17;;
21806;SDS011;11065;50.786;7.840;2023-11-21T06:27:41;8.33;;;5.13;;
21806;SDS011;11065;50.786;7.840;2023-11-21T06:30:10;6.73;;;5.23;;
21806;SDS011;11065;50.786;7.840;2023-11-21T06:32:40;8.37;;;5.77;;
21806;SDS011;11065;50.786;7.840;2023-11-21T06:35:12;8.93;;;5.50;;
21806;SDS011;11065;50.786;7.840;2023-11-21T06:37:43;8.23;;;5.57;;
21806;SDS011;11065;50.786;7.840;2023-11-21T06:40:15;7.53;;;5.60;;
21806;SDS011;11065;50.786;7.840;2023-11-21T06:42:45;7.00;;;5.33;;
21806;SDS011;11065;50.786;7.840;2023-11-21T06:45:13;7.47;;;5.13;;
21806;SDS011;11065;50.786;7.840;2023-11-21T06:47:42;8.83;;;5.87;;
21806;SDS011;11065;50.786;7.840;2023-11-21T06:50:11;8.70;;;5.33;;
21806;SDS011;11065;50.786;7.840;2023-11-21T06:52:39;8.27;;;5.77;;
21806;SDS011;11065;50.786;7.840;2023-11-21T06:55:08;9.43;;;5.77;;
21806;SDS011;11065;50.786;7.840;2023-11-21T06:57:37;6.87;;;5.37;;
21806;SDS011;11065;50.786;7.840;2023-11-21T07:00:05;8.77;;;6.30;;
21806;SDS011;11065;50.786;7.840;2023-11-21T07:02:35;9.07;;;5.40;;
21806;SDS011;11065;50.786;7.840;2023-11-21T07:05:05;9.60;;;5.50;;
21806;SDS011;11065;50.786;7.840;2023-11-21T07:07:33;7.73;;;5.53;;
21806;SDS011;11065;50.786;7.840;2023-11-21T07:10:03;8.60;;;5.67;;
21806;SDS011;11065;50.786;7.840;2023-11-21T07:12:33;7.37;;;5.10;;
21806;SDS011;11065;50.786;7.840;2023-11-21T07:15:02;7.23;;;5.63;;
21806;SDS011;11065;50.786;7.840;2023-11-21T07:17:31;7.53;;;5.10;;
21806;SDS011;11065;50.786;7.840;2023-11-21T07:20:03;9.43;;;5.87;;
21806;SDS011;11065;50.786;7.840;2023-11-21T07:22:33;9.07;;;6.23;;
21806;SDS011;11065;50.786;7.840;2023-11-21T07:25:00;10.17;;;6.47;;
21806;SDS011;11065;50.786;7.840;2023-11-21T07:27:30;7.73;;;5.47;;
21806;SDS011;11065;50.786;7.840;2023-11-21T07:30:01;9.23;;;6.47;;
21806;SDS011;11065;50.786;7.840;2023-11-21T07:32:31;10.47;;;6.13;;
21806;SDS011;11065;50.786;7.840;2023-11-21T07:35:00;8.00;;;5.80;;
21806;SDS011;11065;50.786;7.840;2023-11-21T07:37:29;10.87;;;5.77;;
21806;SDS011;11065;50.786;7.840;2023-11-21T07:39:57;10.30;;;5.83;;
21806;SDS011;11065;50.786;7.840;2023-11-21T07:42:25;10.13;;;6.17;;
21806;SDS011;11065;50.786;7.840;2023-11-21T07:44:53;11.20;;;6.17;;
21806;SDS011;11065;50.786;7.840;2023-11-21T07:47:22;10.07;;;6.07;;
21806;SDS011;11065;50.786;7.840;2023-11-21T07:49:53;8.33;;;5.87;;
21806;SDS011;11065;50.786;7.840;2023-11-21T07:52:22;10.07;;;6.20;;
21806;SDS011;11065;50.786;7.840;2023-11-21T07:54:50;8.90;;;6.23;;
21806;SDS011;11065;50.786;7.840;2023-11-21T07:57:18;10.90;;;6.80;;
21806;SDS011;11065;50.786;7.840;2023-11-21T07:59:46;9.60;;;6.47;;
21806;SDS011;11065;50.786;7.840;2023-11-21T08:02:13;10.30;;;6.37;;
21806;SDS011;11065;50.786;7.840;2023-11-21T08:04:44;9.47;;;6.33;;
21806;SDS011;11065;50.786;7.840;2023-11-21T08:07:12;12.63;;;7.00;;
21806;SDS011;11065;50.786;7.840;2023-11-21T08:09:40;10.97;;;6.60;;
21806;SDS011;11065;50.786;7.840;2023-11-21T08:12:08;8.27;;;6.13;;
21806;SDS011;11065;50.786;7.840;2023-11-21T08:14:37;8.93;;;5.77;;
21806;SDS011;11065;50.786;7.840;2023-11-21T08:17:06;7.77;;;5.60;;
21806;SDS011;11065;50.786;7.840;2023-11-21T08:19:36;9.33;;;5.67;;
21806;SDS011;11065;50.786;7.840;2023-11-21T08:22:05;8.63;;;5.53;;
21806;SDS011;11065;50.786;7.840;2023-11-21T08:24:34;8.50;;;6.23;;
21806;SDS011;11065;50.786;7.840;2023-11-21T08:27:02;8.97;;;6.33;;
21806;SDS011;11065;50.786;7.840;2023-11-21T08:29:31;8.53;;;6.50;;
21806;SDS011;11065;50.786;7.840;2023-11-21T08:31:59;8.03;;;6.27;;
21806;SDS011;11065;50.786;7.840;2023-11-21T08:34:27;8.00;;;5.60;;
21806;SDS011;11065;50.786;7.840;2023-11-21T08:36:55;8.23;;;5.90;;
21806;SDS011;11065;50.786;7.840;2023-11-21T08:39:25;10.20;;;6.63;;
21806;SDS011;11065;50.786;7.840;2023-11-21T08:41:53;10.03;;;6.20;;
21806;SDS011;11065;50.786;7.840;2023-11-21T08:44:21;11.30;;;6.47;;
21806;SDS011;11065;50.786;7.840;2023-11-21T08:46:49;9.87;;;6.87;;
21806;SDS011;11065;50.786;7.840;2023-11-21T08:49:17;12.00;;;6.43;;
21806;SDS011;11065;50.786;7.840;2023-11-21T08:51:45;9.53;;;6.30;;
21806;SDS011;11065;50.786;7.840;2023-11-21T08:54:13;8.77;;;6.57;;
21806;SDS011;11065;50.786;7.840;2023-11-21T08:56:44;9.30;;;6.43;;
21806;SDS011;11065;50.786;7.840;2023-11-21T08:59:12;9.60;;;6.87;;
21806;SDS011;11065;50.786;7.840;2023-11-21T09:01:41;11.43;;;7.37;;
21806;SDS011;11065;50.786;7.840;2023-11-21T09:04:09;12.27;;;7.73;;
21806;SDS011;11065;50.786;7.840;2023-11-21T09:06:37;11.03;;;7.40;;
21806;SDS011;11065;50.786;7.840;2023-11-21T09:09:05;11.10;;;7.33;;
21806;SDS011;11065;50.786;7.840;2023-11-21T09:11:34;12.30;;;7.63;;
21806;SDS011;11065;50.786;7.840;2023-11-21T09:14:04;11.47;;;8.30;;
21806;SDS011;11065;50.786;7.840;2023-11-21T09:16:32;10.83;;;8.07;;
21806;SDS011;11065;50.786;7.840;2023-11-21T09:19:00;13.00;;;8.77;;
21806;SDS011;11065;50.786;7.840;2023-11-21T09:21:31;13.13;;;8.33;;
21806;SDS011;11065;50.786;7.840;2023-11-21T09:24:00;13.23;;;8.77;;
21806;SDS011;11065;50.786;7.840;2023-11-21T09:26:29;13.37;;;9.40;;
21806;SDS011;11065;50.786;7.840;2023-11-21T09:28:57;14.93;;;8.87;;
21806;SDS011;11065;50.786;7.840;2023-11-21T09:31:26;12.73;;;8.90;;
21806;SDS011;11065;50.786;7.840;2023-11-21T09:33:54;14.23;;;8.63;;
21806;SDS011;11065;50.786;7.840;2023-11-21T09:36:23;14.67;;;8.60;;
21806;SDS011;11065;50.786;7.840;2023-11-21T09:38:54;14.00;;;9.10;;
21806;SDS011;11065;50.786;7.840;2023-11-21T09:41:23;12.47;;;8.80;;
21806;SDS011;11065;50.786;7.840;2023-11-21T09:44:01;11.67;;;8.37;;
21806;SDS011;11065;50.786;7.840;2023-11-21T09:46:35;13.60;;;8.50;;
21806;SDS011;11065;50.786;7.840;2023-11-21T09:49:05;13.23;;;8.43;;
21806;SDS011;11065;50.786;7.840;2023-11-21T09:51:39;15.07;;;8.47;;
21806;SDS011;11065;50.786;7.840;2023-11-21T09:54:10;11.93;;;8.43;;
21806;SDS011;11065;50.786;7.840;2023-11-21T09:56:38;13.03;;;8.60;;
21806;SDS011;11065;50.786;7.840;2023-11-21T09:59:06;12.20;;;8.67;;
21806;SDS011;11065;50.786;7.840;2023-11-21T10:01:37;12.47;;;9.80;;
21806;SDS011;11065;50.786;7.840;2023-11-21T10:04:08;14.13;;;9.83;;
21806;SDS011;11065;50.786;7.840;2023-11-21T10:06:38;13.30;;;9.93;;
21806;SDS011;11065;50.786;7.840;2023-11-21T10:09:08;15.30;;;10.33;;
21806;SDS011;11065;50.786;7.840;2023-11-21T10:11:39;15.70;;;9.87;;
21806;SDS011;11065;50.786;7.840;2023-11-21T10:14:08;14.93;;;10.73;;
21806;SDS011;11065;50.786;7.840;2023-11-21T10:16:41;13.37;;;9.90;;
21806;SDS011;11065;50.786;7.840;2023-11-21T10:19:13;12.90;;;9.53;;
21806;SDS011;11065;50.786;7.840;2023-11-21T10:21:42;15.40;;;9.93;;
21806;SDS011;11065;50.786;7.840;2023-11-21T10:24:10;14.37;;;9.67;;
21806;SDS011;11065;50.786;7.840;2023-11-21T10:26:39;13.40;;;9.00;;
21806;SDS011;11065;50.786;7.840;2023-11-21T10:29:18;13.47;;;10.10;;
21806;SDS011;11065;50.786;7.840;2023-11-21T10:31:50;12.83;;;8.97;;
21806;SDS011;11065;50.786;7.840;2023-11-21T10:34:21;14.07;;;9.27;;
21806;SDS011;11065;50.786;7.840;2023-11-21T10:36:48;12.43;;;9.30;;
21806;SDS011;11065;50.786;7.840;2023-11-21T10:39:17;13.50;;;9.20;;
21806;SDS011;11065;50.786;7.840;2023-11-21T10:41:47;14.27;;;8.97;;
21806;SDS011;11065;50.786;7.840;2023-11-21T10:44:16;14.60;;;10.03;;
21806;SDS011;11065;50.786;7.840;2023-11-21T10:46:50;14.07;;;9.33;;
21806;SDS011;11065;50.786;7.840;2023-11-21T10:49:22;13.43;;;9.13;;
21806;SDS011;11065;50.786;7.840;2023-11-21T10:51:52;14.07;;;9.57;;
21806;SDS011;11065;50.786;7.840;2023-11-21T10:54:22;15.33;;;11.10;;
21806;SDS011;11065;50.786;7.840;2023-11-21T10:56:53;14.80;;;9.50;;
21806;SDS011;11065;50.786;7.840;2023-11-21T10:59:28;14.60;;;9.60;;
21806;SDS011;11065;50.786;7.840;2023-11-21T11:01:59;16.03;;;10.70;;
21806;SDS011;11065;50.786;7.840;2023-11-21T11:04:31;14.37;;;9.73;;
21806;SDS011;11065;50.786;7.840;2023-11-21T11:07:01;15.20;;;9.30;;
21806;SDS011;11065;50.786;7.840;2023-11-21T11:09:31;16.30;;;9.60;;
21806;SDS011;11065;50.786;7.840;2023-11-21T11:12:01;17.17;;;10.60;;
21806;SDS011;11065;50.786;7.840;2023-11-21T11:14:30;15.23;;;10.90;;
21806;SDS011;11065;50.786;7.840;2023-11-21T11:17:01;16.13;;;10.40;;
21806;SDS011;11065;50.786;7.840;2023-11-21T11:19:32;13.40;;;9.43;;
21806;SDS011;11065;50.786;7.840;2023-11-21T11:22:04;13.63;;;9.23;;
21806;SDS011;11065;50.786;7.840;2023-11-21T11:24:56;12.70;;;8.40;;
21806;SDS011;11065;50.786;7.840;2023-11-21T11:27:48;11.97;;;8.27;;
21806;SDS011;11065;50.786;7.840;2023-11-21T11:30:26;10.90;;;8.27;;
21806;SDS011;11065;50.786;7.840;2023-11-21T11:33:08;15.40;;;9.37;;
21806;SDS011;11065;50.786;7.840;2023-11-21T11:35:44;14.47;;;9.63;;
21806;SDS011;11065;50.786;7.840;2023-11-21T11:38:20;14.67;;;9.70;;
21806;SDS011;11065;50.786;7.840;2023-11-21T11:40:52;14.93;;;9.87;;
21806;SDS011;11065;50.786;7.840;2023-11-21T11:43:27;14.63;;;10.03;;
21806;SDS011;11065;50.786;7.840;2023-11-21T11:45:55;17.83;;;9.47;;
21806;SDS011;11065;50.786;7.840;2023-11-21T11:48:26;14.27;;;9.57;;
21806;SDS011;11065;50.786;7.840;2023-11-21T11:51:01;14.83;;;9.27;;
21806;SDS011;11065;50.786;7.840;2023-11-21T11:53:35;15.63;;;9.73;;
21806;SDS011;11065;50.786;7.840;2023-11-21T11:56:21;13.73;;;8.90;;
21806;SDS011;11065;50.786;7.840;2023-11-21T11:58:53;15.77;;;9.60;;
21806;SDS011;11065;50.786;7.840;2023-11-21T12:01:23;14.40;;;9.60;;
21806;SDS011;11065;50.786;7.840;2023-11-21T12:07:01;16.57;;;8.67;;
21806;SDS011;11065;50.786;7.840;2023-11-21T12:09:32;15.37;;;9.23;;
21806;SDS011;11065;50.786;7.840;2023-11-21T12:12:00;15.97;;;9.43;;
21806;SDS011;11065;50.786;7.840;2023-11-21T12:14:30;12.63;;;9.23;;
21806;SDS011;11065;50.786;7.840;2023-11-21T12:16:58;16.47;;;9.40;;
21806;SDS011;11065;50.786;7.840;2023-11-21T12:19:28;13.93;;;9.87;;
21806;SDS011;11065;50.786;7.840;2023-11-21T12:21:56;14.17;;;9.70;;
21806;SDS011;11065;50.786;7.840;2023-11-21T12:24:24;14.43;;;9.40;;
21806;SDS011;11065;50.786;7.840;2023-11-21T12:26:55;15.00;;;9.70;;
21806;SDS011;11065;50.786;7.840;2023-11-21T12:29:23;16.23;;;10.23;;
21806;SDS011;11065;50.786;7.840;2023-11-21T12:31:51;12.93;;;8.90;;
21806;SDS011;11065;50.786;7.840;2023-11-21T12:34:19;16.00;;;10.27;;
21806;SDS011;11065;50.786;7.840;2023-11-21T12:36:48;14.43;;;9.97;;
21806;SDS011;11065;50.786;7.840;2023-11-21T12:39:17;15.13;;;9.33;;
21806;SDS011;11065;50.786;7.840;2023-11-21T12:41:48;15.77;;;10.17;;
21806;SDS011;11065;50.786;7.840;2023-11-21T12:44:17;16.27;;;10.00;;
21806;SDS011;11065;50.786;7.840;2023-11-21T12:46:45;14.07;;;8.70;;
21806;SDS011;11065;50.786;7.840;2023-11-21T12:49:13;14.90;;;9.23;;
21806;SDS011;11065;50.786;7.840;2023-11-21T12:51:44;16.27;;;9.20;;
21806;SDS011;11065;50.786;7.840;2023-11-21T12:54:14;15.00;;;8.97;;
21806;SDS011;11065;50.786;7.840;2023-11-21T12:56:45;14.60;;;8.87;;
21806;SDS011;11065;50.786;7.840;2023-11-21T12:59:15;13.97;;;8.73;;
21806;SDS011;11065;50.786;7.840;2023-11-21T13:01:44;14.57;;;8.80;;
21806;SDS011;11065;50.786;7.840;2023-11-21T13:04:12;13.13;;;9.03;;
21806;SDS011;11065;50.786;7.840;2023-11-21T13:06:40;14.90;;;9.17;;
21806;SDS011;11065;50.786;7.840;2023-11-21T13:09:09;13.00;;;8.60;;
21806;SDS011;11065;50.786;7.840;2023-11-21T13:11:39;13.40;;;8.83;;
21806;SDS011;11065;50.786;7.840;2023-11-21T13:14:07;12.77;;;8.70;;
21806;SDS011;11065;50.786;7.840;2023-11-21T13:16:38;15.40;;;9.77;;
21806;SDS011;11065;50.786;7.840;2023-11-21T13:19:12;15.37;;;9.33;;
21806;SDS011;11065;50.786;7.840;2023-11-21T13:21:40;13.27;;;7.90;;
21806;SDS011;11065;50.786;7.840;2023-11-21T13:24:08;12.37;;;8.00;;
21806;SDS011;11065;50.786;7.840;2023-11-21T13:26:36;15.33;;;8.53;;
21806;SDS011;11065;50.786;7.840;2023-11-21T13:29:06;13.40;;;7.77;;
21806;SDS011;11065;50.786;7.840;2023-11-21T13:31:35;14.23;;;8.80;;
21806;SDS011;11065;50.786;7.840;2023-11-21T13:34:04;12.23;;;7.60;;
21806;SDS011;11065;50.786;7.840;2023-11-21T13:36:35;11.90;;;7.77;;
21806;SDS011;11065;50.786;7.840;2023-11-21T13:39:03;14.23;;;7.60;;
21806;SDS011;11065;50.786;7.840;2023-11-21T13:41:34;11.53;;;7.33;;
21806;SDS011;11065;50.786;7.840;2023-11-21T13:44:08;13.77;;;7.87;;
21806;SDS011;11065;50.786;7.840;2023-11-21T13:46:43;13.77;;;7.70;;
21806;SDS011;11065;50.786;7.840;2023-11-21T13:49:12;13.70;;;8.20;;
21806;SDS011;11065;50.786;7.840;2023-11-21T13:51:41;13.83;;;8.70;;
21806;SDS011;11065;50.786;7.840;2023-11-21T13:54:11;14.07;;;9.50;;
21806;SDS011;11065;50.786;7.840;2023-11-21T13:56:41;14.97;;;8.57;;
21806;SDS011;11065;50.786;7.840;2023-11-21T13:59:13;17.73;;;8.77;;
21806;SDS011;11065;50.786;7.840;2023-11-21T14:01:51;11.97;;;8.17;;
21806;SDS011;11065;50.786;7.840;2023-11-21T14:04:24;15.70;;;8.60;;
21806;SDS011;11065;50.786;7.840;2023-11-21T14:07:13;14.03;;;8.00;;
21806;SDS011;11065;50.786;7.840;2023-11-21T14:09:58;12.93;;;7.70;;
21806;SDS011;11065;50.786;7.840;2023-11-21T14:12:27;13.33;;;7.93;;
21806;SDS011;11065;50.786;7.840;2023-11-21T14:15:06;12.73;;;7.87;;
21806;SDS011;11065;50.786;7.840;2023-11-21T14:17:36;15.10;;;8.17;;
21806;SDS011;11065;50.786;7.840;2023-11-21T14:20:07;13.87;;;7.97;;
21806;SDS011;11065;50.786;7.840;2023-11-21T14:22:43;12.60;;;7.87;;
21806;SDS011;11065;50.786;7.840;2023-11-21T14:25:12;15.40;;;8.57;;
21806;SDS011;11065;50.786;7.840;2023-11-21T14:27:40;14.77;;;8.10;;
21806;SDS011;11065;50.786;7.840;2023-11-21T14:30:10;13.70;;;8.07;;
21806;SDS011;11065;50.786;7.840;2023-11-21T14:32:39;13.63;;;7.80;;
21806;SDS011;11065;50.786;7.840;2023-11-21T14:35:08;13.20;;;8.30;;
21806;SDS011;11065;50.786;7.840;2023-11-21T14:37:37;15.17;;;8.13;;
21806;SDS011;11065;50.786;7.840;2023-11-21T14:40:06;13.60;;;8.17;;
21806;SDS011;11065;50.786;7.840;2023-11-21T14:42:35;16.10;;;8.37;;
21806;SDS011;11065;50.786;7.840;2023-11-21T14:45:05;13.40;;;8.10;;
21806;SDS011;11065;50.786;7.840;2023-11-21T14:47:36;18.60;;;10.77;;
21806;SDS011;11065;50.786;7.840;2023-11-21T14:50:08;16.37;;;9.10;;
21806;SDS011;11065;50.786;7.840;2023-11-21T14:53:01;14.43;;;8.53;;
21806;SDS011;11065;50.786;7.840;2023-11-21T14:55:32;12.50;;;7.77;;
21806;SDS011;11065;50.786;7.840;2023-11-21T14:58:13;13.27;;;7.10;;